createdAt,value
2022-08-27T00:02:29.433Z,97317.78
2022-08-27T00:05:32.421Z,97316.72
2022-08-27T00:08:35.352Z,97318.47
2022-08-27T00:11:39.479Z,97325.31
2022-08-27T00:14:42.245Z,97321.28
2022-08-27T00:17:46.721Z,97330.06
2022-08-27T00:20:49.508Z,97321.66
2022-08-27T00:23:52.521Z,97320.16
2022-08-27T00:26:56.722Z,97322.22
2022-08-27T00:29:59.568Z,97326.78
2022-08-27T00:33:04.191Z,97328.94
2022-08-27T00:36:07.131Z,97336.50
2022-08-27T00:39:09.955Z,97334.09
2022-08-27T00:42:14.509Z,97341.38
2022-08-27T00:45:19.705Z,97351.38
2022-08-27T00:48:25.906Z,97354.72
2022-08-27T00:51:31.072Z,97356.94
2022-08-27T00:54:34.234Z,97363.56
2022-08-27T00:57:41.034Z,97367.50
2022-08-27T01:00:46.344Z,97377.75
2022-08-27T01:03:52.366Z,97389.59
2022-08-27T01:06:55.853Z,97388.88
2022-08-27T01:10:01.445Z,97395.72
2022-08-27T01:13:07.999Z,97395.16
2022-08-27T01:16:13.374Z,97397.13
2022-08-27T01:19:23.898Z,97394.69
2022-08-27T01:22:34.221Z,97398.81
2022-08-27T01:25:38.721Z,97387.22
2022-08-27T01:28:42.629Z,97379.91
2022-08-27T01:31:45.628Z,97375.47
2022-08-27T01:34:49.427Z,97371.56
2022-08-27T01:37:57.179Z,97373.09
2022-08-27T01:41:02.631Z,97379.25
2022-08-27T01:44:05.690Z,97371.00
2022-08-27T01:47:08.432Z,97374.25
2022-08-27T01:50:14.641Z,97375.88
2022-08-27T01:53:20.245Z,97372.16
2022-08-27T01:56:25.277Z,97377.84
2022-08-27T01:59:39.403Z,97378.44
2022-08-27T02:02:44.552Z,97371.91
2022-08-27T02:05:48.716Z,97384.47
2022-08-27T02:08:51.581Z,97375.75
2022-08-27T02:11:55.781Z,97367.00
2022-08-27T02:14:58.654Z,97362.47
2022-08-27T02:18:02.656Z,97355.28
2022-08-27T02:21:05.486Z,97339.81
2022-08-27T02:24:08.453Z,97331.00
2022-08-27T02:27:13.722Z,97340.97
2022-08-27T02:30:20.794Z,97322.78
2022-08-27T02:33:23.550Z,97327.47
2022-08-27T02:36:26.412Z,97326.06
2022-08-27T02:39:29.454Z,97334.41
2022-08-27T02:42:33.591Z,97343.59
2022-08-27T02:45:37.828Z,97338.38
2022-08-27T02:48:40.752Z,97337.31
2022-08-27T02:52:24.962Z,97346.59
2022-08-27T02:55:28.282Z,97338.56
2022-08-27T02:58:33.484Z,97332.66
2022-08-27T03:01:36.533Z,97331.81
2022-08-27T03:04:39.337Z,97319.81
2022-08-27T03:07:42.608Z,97317.75
2022-08-27T03:10:45.614Z,97308.91
2022-08-27T03:13:49.786Z,97310.53
2022-08-27T03:16:52.677Z,97313.69
2022-08-27T03:19:55.649Z,97306.59
2022-08-27T03:22:58.442Z,97313.78
2022-08-27T03:26:04.653Z,97321.19
2022-08-27T03:29:09.413Z,97331.44
2022-08-27T03:32:12.152Z,97331.59
2022-08-27T03:35:15.699Z,97347.25
2022-08-27T03:38:18.485Z,97343.31
2022-08-27T03:41:22.404Z,97327.16
2022-08-27T03:44:26.575Z,97337.19
2022-08-27T03:47:29.385Z,97341.69
2022-08-27T03:50:32.510Z,97343.44
2022-08-27T03:53:35.839Z,97351.78
2022-08-27T03:56:39.485Z,97354.78
2022-08-27T03:59:43.615Z,97347.84
2022-08-27T04:02:46.496Z,97350.16
2022-08-27T04:05:53.773Z,97352.25
2022-08-27T04:08:56.587Z,97355.47
2022-08-27T04:11:59.347Z,97361.84
2022-08-27T04:15:03.640Z,97370.00
2022-08-27T04:18:06.880Z,97371.97
2022-08-27T04:21:11.433Z,97377.06
2022-08-27T04:24:14.228Z,97394.09
2022-08-27T04:27:17.180Z,97392.00
2022-08-27T04:30:21.317Z,97397.03
2022-08-27T04:33:24.193Z,97398.66
2022-08-27T04:36:27.495Z,97454.34
2022-08-27T04:39:31.206Z,97458.50
2022-08-27T04:42:33.973Z,97443.41
2022-08-27T04:45:45.274Z,97454.09
2022-08-27T04:48:48.108Z,97455.34
2022-08-27T04:51:52.448Z,97467.44
2022-08-27T04:54:55.257Z,97466.72
2022-08-27T04:57:58.089Z,97472.19
2022-08-27T05:01:02.202Z,97472.19
2022-08-27T05:04:06.328Z,97475.44
2022-08-27T05:07:10.688Z,97477.88
2022-08-27T05:10:13.435Z,97471.13
2022-08-27T05:13:18.737Z,97468.25
2022-08-27T05:16:24.115Z,97469.72
2022-08-27T05:19:27.487Z,97471.25
2022-08-27T05:22:30.301Z,97468.44
2022-08-27T05:25:33.162Z,97462.31
2022-08-27T05:28:35.905Z,97471.09
2022-08-27T05:31:42.484Z,97468.00
2022-08-27T05:34:45.814Z,97469.16
2022-08-27T05:37:48.580Z,97476.91
2022-08-27T05:40:51.367Z,97477.47
2022-08-27T05:43:54.992Z,97474.72
2022-08-27T05:46:59.421Z,97467.59
2022-08-27T05:50:03.765Z,97478.63
2022-08-27T05:53:08.854Z,97486.16
2022-08-27T05:56:15.749Z,97484.22
2022-08-27T05:59:36.634Z,97483.19
2022-08-27T06:02:40.977Z,97482.50
2022-08-27T06:05:43.945Z,97487.72
2022-08-27T06:08:46.814Z,97490.97
2022-08-27T06:11:50.078Z,97493.16
2022-08-27T06:14:52.879Z,97483.44
2022-08-27T06:17:59.207Z,97493.97
2022-08-27T06:21:02.125Z,97486.75
2022-08-27T06:24:04.963Z,97483.03
2022-08-27T06:27:09.536Z,97492.06
2022-08-27T06:30:17.015Z,97497.88
2022-08-27T06:33:21.664Z,97499.31
2022-08-27T06:36:26.398Z,97507.28
2022-08-27T06:39:30.884Z,97515.28
2022-08-27T06:42:34.837Z,97507.94
2022-08-27T06:45:39.775Z,97434.69
2022-08-27T06:48:46.889Z,97441.00
2022-08-27T06:51:49.794Z,97444.66
2022-08-27T06:54:52.635Z,97451.19
2022-08-27T06:57:55.438Z,97458.06
2022-08-27T07:05:46.152Z,97465.09
2022-08-27T07:08:53.632Z,97463.19
2022-08-27T07:11:57.389Z,97473.47
2022-08-27T07:15:00.108Z,97483.56
2022-08-27T07:18:02.964Z,97484.13
2022-08-27T07:21:10.585Z,97492.53
2022-08-27T07:24:13.428Z,97494.28
2022-08-27T07:27:16.221Z,97490.81
2022-08-27T07:30:19.840Z,97488.34
